Time;durP1;ratioP1;P1;durP2;ratioP2;P2;SDS_P1;SDS_P2;PMS_P1;PMS_P2;Temp;Humidity;BMP_temperature;BMP_pressure;BME280_temperature;BME280_humidity;BME280_pressure;Samples;Min_cycle;Max_cycle;Signal;HPM_P1;HPM_P2
2023/08/11 00:02:06;;;;;;;2.17;2.08;;;;;;;;;;5088461;28;20327;-59
2023/08/11 00:04:34;;;;;;;1.63;1.55;;;;;;;;;;5088433;28;20564;-59
2023/08/11 00:07:03;;;;;;;2.53;2.28;;;;;;;;;;5088120;28;20210;-59
2023/08/11 00:09:30;;;;;;;2.67;2.10;;;;;;;;;;5088341;28;20206;-59
2023/08/11 00:11:57;;;;;;;2.22;2.03;;;;;;;;;;5088122;28;20926;-59
2023/08/11 00:14:26;;;;;;;2.13;2.03;;;;;;;;;;5088040;28;20214;-59
2023/08/11 00:16:53;;;;;;;1.95;1.85;;;;;;;;;;5088141;28;20341;-59
2023/08/11 00:19:20;;;;;;;1.92;1.80;;;;;;;;;;5088199;28;20230;-58
2023/08/11 00:21:47;;;;;;;2.80;2.10;;;;;;;;;;5087835;28;20202;-59
2023/08/11 00:24:14;;;;;;;6.80;2.00;;;;;;;;;;5088194;28;20214;-59
2023/08/11 00:26:41;;;;;;;1.60;1.60;;;;;;;;;;5088231;28;20213;-59
2023/08/11 00:29:08;;;;;;;3.00;1.92;;;;;;;;;;5087969;28;20210;-58
2023/08/11 00:31:37;;;;;;;4.68;1.83;;;;;;;;;;5087261;28;20217;-58
2023/08/11 00:34:06;;;;;;;2.05;1.98;;;;;;;;;;5088064;28;20217;-58
2023/08/11 00:36:34;;;;;;;2.08;1.90;;;;;;;;;;5088165;28;20212;-58
2023/08/11 00:39:01;;;;;;;7.40;1.90;;;;;;;;;;5087734;28;20222;-58
2023/08/11 00:41:28;;;;;;;2.30;2.20;;;;;;;;;;5087185;28;20762;-58
2023/08/11 00:43:55;;;;;;;4.18;2.47;;;;;;;;;;5087650;28;20558;-57
2023/08/11 00:46:24;;;;;;;5.82;1.85;;;;;;;;;;5087781;28;20668;-61
2023/08/11 00:48:53;;;;;;;2.78;2.10;;;;;;;;;;5088012;28;20218;-58
2023/08/11 00:51:22;;;;;;;2.80;2.05;;;;;;;;;;5087717;28;20206;-58
2023/08/11 00:53:49;;;;;;;1.88;1.77;;;;;;;;;;5087931;28;20305;-59
2023/08/11 00:56:16;;;;;;;2.00;1.98;;;;;;;;;;5087961;28;20233;-58
2023/08/11 00:58:44;;;;;;;2.10;2.00;;;;;;;;;;5086335;28;20214;-58
2023/08/11 01:01:11;;;;;;;2.03;1.90;;;;;;;;;;5085570;28;20206;-58
2023/08/11 01:03:38;;;;;;;2.55;2.00;;;;;;;;;;5085424;28;20217;-57
2023/08/11 01:06:08;;;;;;;1.95;1.85;;;;;;;;;;5085771;28;20209;-58
2023/08/11 01:08:38;;;;;;;2.20;1.98;;;;;;;;;;5086001;28;20213;-58
2023/08/11 01:11:09;;;;;;;2.13;2.03;;;;;;;;;;5087491;28;20668;-59
2023/08/11 01:13:39;;;;;;;4.68;1.95;;;;;;;;;;5081745;28;20222;-58
2023/08/11 01:16:06;;;;;;;1.67;1.58;;;;;;;;;;5087809;28;20214;-59
2023/08/11 01:18:34;;;;;;;2.70;2.05;;;;;;;;;;5087828;28;20202;-58
2023/08/11 01:21:03;;;;;;;2.25;1.80;;;;;;;;;;5087445;28;20225;-58
2023/08/11 01:23:32;;;;;;;2.67;2.10;;;;;;;;;;5087180;28;20267;-58
2023/08/11 01:26:00;;;;;;;1.80;1.70;;;;;;;;;;5087585;28;20217;-58
2023/08/11 01:28:28;;;;;;;2.10;2.00;;;;;;;;;;5087762;28;20275;-58
2023/08/11 01:30:55;;;;;;;1.60;1.60;;;;;;;;;;5087565;28;20206;-58
2023/08/11 01:33:22;;;;;;;2.17;1.90;;;;;;;;;;5087316;28;20594;-59
2023/08/11 01:35:49;;;;;;;3.53;1.50;;;;;;;;;;5087166;28;20553;-58
2023/08/11 01:38:17;;;;;;;1.80;1.80;;;;;;;;;;5087416;28;20213;-58
2023/08/11 01:40:45;;;;;;;1.92;1.85;;;;;;;;;;5087252;28;20241;-58
2023/08/11 01:43:15;;;;;;;1.70;1.60;;;;;;;;;;5089717;28;20226;-58
2023/08/11 01:45:44;;;;;;;1.55;1.55;;;;;;;;;;5091294;28;20211;-58
2023/08/11 01:48:11;;;;;;;1.60;1.60;;;;;;;;;;5091372;28;20233;-59
2023/08/11 01:50:39;;;;;;;1.70;1.70;;;;;;;;;;5090779;28;20587;-58
2023/08/11 01:53:06;;;;;;;6.80;1.83;;;;;;;;;;5090804;28;20234;-58
2023/08/11 01:55:33;;;;;;;1.90;1.80;;;;;;;;;;5090739;28;20217;-58
2023/08/11 01:58:02;;;;;;;3.10;2.35;;;;;;;;;;5090930;28;20217;-58
2023/08/11 02:00:29;;;;;;;3.67;1.67;;;;;;;;;;5090698;28;20233;-59
2023/08/11 02:02:57;;;;;;;1.80;1.80;;;;;;;;;;5090797;28;20209;-58
2023/08/11 02:05:24;;;;;;;2.58;2.10;;;;;;;;;;5090469;28;20226;-58
2023/08/11 02:07:52;;;;;;;1.80;1.80;;;;;;;;;;5090867;28;20253;-59
2023/08/11 02:10:19;;;;;;;2.60;1.90;;;;;;;;;;5090764;28;20218;-58
2023/08/11 02:12:47;;;;;;;1.75;1.65;;;;;;;;;;5090856;28;20210;-58
2023/08/11 02:15:16;;;;;;;2.72;1.85;;;;;;;;;;5090290;28;20240;-58
2023/08/11 02:17:43;;;;;;;3.28;1.80;;;;;;;;;;5090634;28;20214;-58
2023/08/11 02:20:17;;;;;;;1.85;1.77;;;;;;;;;;5090458;28;20222;-58
2023/08/11 02:22:44;;;;;;;2.15;1.92;;;;;;;;;;5090498;28;20307;-58
2023/08/11 02:25:11;;;;;;;2.38;1.92;;;;;;;;;;5090273;28;20237;-59
2023/08/11 02:27:38;;;;;;;2.53;1.65;;;;;;;;;;5090449;28;20213;-59
2023/08/11 02:30:06;;;;;;;5.50;1.95;;;;;;;;;;5090258;28;20221;-59
2023/08/11 02:32:35;;;;;;;1.80;1.70;;;;;;;;;;5090244;28;20411;-59
2023/08/11 02:35:03;;;;;;;2.05;1.95;;;;;;;;;;5090012;28;20202;-59
2023/08/11 02:37:30;;;;;;;1.70;1.60;;;;;;;;;;5090323;28;20684;-59
2023/08/11 02:39:57;;;;;;;2.60;1.77;;;;;;;;;;5090013;28;20218;-59
2023/08/11 02:42:25;;;;;;;3.47;2.15;;;;;;;;;;5090401;28;20695;-59
2023/08/11 02:44:52;;;;;;;1.92;1.83;;;;;;;;;;5090151;28;20230;-59
2023/08/11 02:47:19;;;;;;;2.25;1.55;;;;;;;;;;5089530;28;20203;-59
2023/08/11 02:49:48;;;;;;;2.90;1.95;;;;;;;;;;5089941;28;20588;-59
2023/08/11 02:52:15;;;;;;;1.85;1.75;;;;;;;;;;5089755;28;20230;-59
2023/08/11 02:54:42;;;;;;;1.92;1.58;;;;;;;;;;5089959;28;20691;-59
2023/08/11 02:57:09;;;;;;;2.20;2.00;;;;;;;;;;5089636;28;20206;-59
2023/08/11 02:59:36;;;;;;;2.95;1.85;;;;;;;;;;5089844;28;20210;-59
2023/08/11 03:02:03;;;;;;;1.83;1.75;;;;;;;;;;5089904;28;20206;-59
2023/08/11 03:04:30;;;;;;;2.90;2.00;;;;;;;;;;5089735;28;20213;-59
2023/08/11 03:06:58;;;;;;;1.48;1.48;;;;;;;;;;5089873;28;20229;-59
2023/08/11 03:09:25;;;;;;;1.98;1.88;;;;;;;;;;5089449;28;20673;-59
2023/08/11 03:11:52;;;;;;;1.73;1.63;;;;;;;;;;5089731;28;20210;-59
2023/08/11 03:14:19;;;;;;;4.00;2.00;;;;;;;;;;5089531;28;20210;-59
2023/08/11 03:16:46;;;;;;;3.15;1.73;;;;;;;;;;5089114;28;20206;-59
2023/08/11 03:19:14;;;;;;;1.85;1.75;;;;;;;;;;5089566;28;20966;-59
2023/08/11 03:21:41;;;;;;;2.03;1.92;;;;;;;;;;5089390;28;20226;-59
2023/08/11 03:24:10;;;;;;;2.70;1.88;;;;;;;;;;5089455;28;20213;-59
2023/08/11 03:26:37;;;;;;;2.10;2.10;;;;;;;;;;5089600;28;20214;-59
2023/08/11 03:29:04;;;;;;;2.10;2.10;;;;;;;;;;5088985;28;20251;-59
2023/08/11 03:31:31;;;;;;;2.10;1.98;;;;;;;;;;5088839;28;20202;-59
2023/08/11 03:33:58;;;;;;;2.60;2.40;;;;;;;;;;5089114;28;20206;-59
2023/08/11 03:36:26;;;;;;;3.22;2.00;;;;;;;;;;5089345;28;20210;-59
2023/08/11 03:38:53;;;;;;;4.47;1.90;;;;;;;;;;5088664;28;20928;-60
2023/08/11 03:41:21;;;;;;;3.95;2.40;;;;;;;;;;5089152;28;20315;-60
2023/08/11 03:43:48;;;;;;;3.88;1.80;;;;;;;;;;5088953;28;20230;-60
2023/08/11 03:46:15;;;;;;;2.22;2.13;;;;;;;;;;5089091;28;20221;-59
2023/08/11 03:48:43;;;;;;;1.77;1.70;;;;;;;;;;5088547;28;20290;-60
2023/08/11 03:51:11;;;;;;;2.83;2.03;;;;;;;;;;5088879;28;20202;-59
2023/08/11 03:53:38;;;;;;;1.90;1.80;;;;;;;;;;5089003;28;20206;-59
2023/08/11 03:56:07;;;;;;;2.10;2.00;;;;;;;;;;5088940;28;20214;-59
2023/08/11 03:58:36;;;;;;;2.08;1.92;;;;;;;;;;5088355;28;20297;-60
2023/08/11 04:01:04;;;;;;;1.77;1.65;;;;;;;;;;5086568;28;20214;-59
2023/08/11 04:03:31;;;;;;;1.80;1.70;;;;;;;;;;5088156;28;20878;-59
2023/08/11 04:05:58;;;;;;;2.90;2.38;;;;;;;;;;5088386;28;20210;-59
2023/08/11 04:08:26;;;;;;;4.32;2.53;;;;;;;;;;5088600;28;20673;-59
2023/08/11 04:10:53;;;;;;;2.50;2.30;;;;;;;;;;5088538;28;20241;-59
2023/08/11 04:13:20;;;;;;;2.42;2.28;;;;;;;;;;5088248;28;20283;-59
2023/08/11 04:15:49;;;;;;;4.18;2.60;;;;;;;;;;5087434;28;20821;-57
2023/08/11 04:18:16;;;;;;;2.88;2.50;;;;;;;;;;5087654;28;20839;-60
2023/08/11 04:20:43;;;;;;;4.70;2.60;;;;;;;;;;5087617;28;20708;-60
2023/08/11 04:23:10;;;;;;;2.85;2.33;;;;;;;;;;5087802;28;20750;-58
2023/08/11 04:25:37;;;;;;;2.70;2.50;;;;;;;;;;5088247;28;20213;-58
2023/08/11 04:28:04;;;;;;;3.00;2.70;;;;;;;;;;5088420;28;20210;-58
2023/08/11 04:30:32;;;;;;;3.95;2.72;;;;;;;;;;5088184;28;20210;-59
2023/08/11 04:33:00;;;;;;;6.32;2.83;;;;;;;;;;5087687;28;20238;-58
2023/08/11 04:35:28;;;;;;;2.67;2.50;;;;;;;;;;5088173;28;20218;-58
2023/08/11 04:37:55;;;;;;;2.70;2.47;;;;;;;;;;5088123;28;20210;-58
2023/08/11 04:40:22;;;;;;;3.33;2.65;;;;;;;;;;5086047;28;20229;-58
2023/08/11 04:42:49;;;;;;;4.07;2.17;;;;;;;;;;5087817;28;20206;-58
2023/08/11 04:45:16;;;;;;;2.03;1.85;;;;;;;;;;5088248;28;20245;-57
2023/08/11 04:47:44;;;;;;;4.72;1.80;;;;;;;;;;5088189;28;20255;-58
2023/08/11 04:50:12;;;;;;;2.33;1.95;;;;;;;;;;5087672;28;20636;-57
2023/08/11 04:52:39;;;;;;;1.65;1.55;;;;;;;;;;5087536;28;20211;-57
2023/08/11 04:55:07;;;;;;;1.73;1.63;;;;;;;;;;5086394;28;20210;-60
2023/08/11 04:57:34;;;;;;;1.58;1.50;;;;;;;;;;5087627;28;20660;-59
2023/08/11 05:00:01;;;;;;;1.40;1.40;;;;;;;;;;5085940;28;20226;-61
2023/08/11 05:02:28;;;;;;;1.67;1.67;;;;;;;;;;5086561;28;20209;-61
2023/08/11 05:04:55;;;;;;;1.80;1.70;;;;;;;;;;5087434;28;20205;-60
2023/08/11 05:07:24;;;;;;;1.58;1.48;;;;;;;;;;5087902;28;20202;-61
2023/08/11 05:09:51;;;;;;;1.58;1.58;;;;;;;;;;5081229;28;20294;-60
2023/08/11 05:12:18;;;;;;;1.63;1.52;;;;;;;;;;5083460;28;20226;-61
2023/08/11 05:14:47;;;;;;;2.28;1.55;;;;;;;;;;5081400;28;20707;-61
2023/08/11 05:17:14;;;;;;;1.55;1.45;;;;;;;;;;5072632;28;20202;-61
2023/08/11 05:19:41;;;;;;;1.40;1.30;;;;;;;;;;5091658;28;20206;-61
2023/08/11 05:22:08;;;;;;;1.52;1.38;;;;;;;;;;5089221;28;20229;-61
2023/08/11 05:24:36;;;;;;;1.23;1.23;;;;;;;;;;5089575;28;20214;-61
2023/08/11 05:27:03;;;;;;;1.10;0.98;;;;;;;;;;5089280;28;20210;-61
2023/08/11 05:29:30;;;;;;;1.00;1.00;;;;;;;;;;5086698;28;20206;-61
2023/08/11 05:31:57;;;;;;;0.95;0.95;;;;;;;;;;5091523;28;20234;-61
2023/08/11 05:34:24;;;;;;;1.10;1.10;;;;;;;;;;5084482;28;20260;-61
2023/08/11 05:36:53;;;;;;;1.05;1.05;;;;;;;;;;5074270;28;20428;-61
2023/08/11 05:39:20;;;;;;;1.05;1.05;;;;;;;;;;5075052;28;20418;-61
2023/08/11 05:41:49;;;;;;;1.38;1.30;;;;;;;;;;5076990;28;20325;-61
2023/08/11 05:44:16;;;;;;;2.05;0.90;;;;;;;;;;5089891;28;20225;-61
2023/08/11 05:46:43;;;;;;;0.93;0.93;;;;;;;;;;5091293;28;20217;-61
2023/08/11 05:49:10;;;;;;;1.13;1.10;;;;;;;;;;5091311;28;20206;-61
2023/08/11 05:51:37;;;;;;;1.10;1.10;;;;;;;;;;5091361;28;20647;-61
2023/08/11 05:54:04;;;;;;;1.35;1.30;;;;;;;;;;5089999;28;20210;-60
2023/08/11 05:56:31;;;;;;;1.38;1.38;;;;;;;;;;5086336;28;20210;-61
2023/08/11 05:59:00;;;;;;;3.47;1.20;;;;;;;;;;5091259;28;20225;-61
2023/08/11 06:01:27;;;;;;;1.27;1.27;;;;;;;;;;5090734;28;20222;-61
2023/08/11 06:03:54;;;;;;;1.80;1.70;;;;;;;;;;5090147;28;20206;-60
2023/08/11 06:06:21;;;;;;;1.40;1.40;;;;;;;;;;5090527;28;20210;-61
2023/08/11 06:08:48;;;;;;;1.10;1.10;;;;;;;;;;5086265;28;20692;-61
2023/08/11 06:11:15;;;;;;;1.65;1.65;;;;;;;;;;5087983;28;20199;-62
2023/08/11 06:13:42;;;;;;;1.65;1.65;;;;;;;;;;5081303;28;20203;-62
2023/08/11 06:16:11;;;;;;;1.73;1.50;;;;;;;;;;5086355;28;20206;-63
2023/08/11 06:18:38;;;;;;;1.55;1.38;;;;;;;;;;5090210;28;20695;-62
2023/08/11 06:21:05;;;;;;;1.25;1.25;;;;;;;;;;5088412;28;20227;-62
2023/08/11 06:23:32;;;;;;;1.48;1.35;;;;;;;;;;5090404;28;20245;-62
2023/08/11 06:25:59;;;;;;;1.67;1.58;;;;;;;;;;5090056;28;20218;-60
2023/08/11 06:28:26;;;;;;;1.67;1.58;;;;;;;;;;5089577;28;20210;-63
2023/08/11 06:30:53;;;;;;;1.10;1.10;;;;;;;;;;5089912;28;20210;-63
2023/08/11 06:33:21;;;;;;;1.48;1.38;;;;;;;;;;5087596;28;20230;-64
2023/08/11 06:35:48;;;;;;;1.35;1.35;;;;;;;;;;5089323;28;20210;-64
2023/08/11 06:38:15;;;;;;;1.15;1.15;;;;;;;;;;5088828;28;20626;-62
2023/08/11 06:40:44;;;;;;;1.30;1.20;;;;;;;;;;5088997;28;20317;-62
2023/08/11 06:43:11;;;;;;;1.10;1.10;;;;;;;;;;5089390;28;20665;-64
2023/08/11 06:45:38;;;;;;;1.15;1.15;;;;;;;;;;5088145;28;20210;-62
2023/08/11 06:48:05;;;;;;;0.95;0.95;;;;;;;;;;5087983;28;20210;-63
2023/08/11 06:50:34;;;;;;;1.33;1.33;;;;;;;;;;5081122;28;20213;-62
2023/08/11 06:53:01;;;;;;;1.40;1.40;;;;;;;;;;5086968;28;20202;-66
2023/08/11 06:55:28;;;;;;;1.58;1.58;;;;;;;;;;5088729;28;20202;-64
2023/08/11 06:57:55;;;;;;;1.40;1.40;;;;;;;;;;5088733;28;20210;-64
2023/08/11 07:00:22;;;;;;;1.40;1.40;;;;;;;;;;5084864;28;20210;-64
2023/08/11 07:02:49;;;;;;;1.73;1.70;;;;;;;;;;5088069;28;20226;-64
2023/08/11 07:05:16;;;;;;;1.40;1.30;;;;;;;;;;5085797;28;20213;-61
2023/08/11 07:07:44;;;;;;;1.05;1.05;;;;;;;;;;5087892;28;20206;-61
2023/08/11 07:10:12;;;;;;;1.40;1.40;;;;;;;;;;5081234;28;20203;-61
2023/08/11 07:12:39;;;;;;;1.13;1.13;;;;;;;;;;5080590;28;20205;-60
2023/08/11 07:15:07;;;;;;;1.33;1.33;;;;;;;;;;5088531;28;20206;-60
2023/08/11 07:17:35;;;;;;;1.25;1.25;;;;;;;;;;5088991;28;20202;-61
2023/08/11 07:20:02;;;;;;;1.20;1.20;;;;;;;;;;5089133;28;20251;-60
2023/08/11 07:22:29;;;;;;;1.02;1.02;;;;;;;;;;5088849;28;20938;-61
2023/08/11 07:24:57;;;;;;;1.48;1.38;;;;;;;;;;5088552;28;20259;-62
2023/08/11 07:27:24;;;;;;;1.55;1.45;;;;;;;;;;5068863;28;20215;-61
2023/08/11 07:29:51;;;;;;;1.00;1.00;;;;;;;;;;5079689;28;20661;-61
2023/08/11 07:32:18;;;;;;;1.10;1.10;;;;;;;;;;5088260;28;20235;-62
2023/08/11 07:34:45;;;;;;;1.20;1.20;;;;;;;;;;5088889;28;20202;-62
2023/08/11 07:37:12;;;;;;;0.90;0.90;;;;;;;;;;5087948;28;20217;-60
2023/08/11 07:39:39;;;;;;;0.95;0.95;;;;;;;;;;5087490;28;20206;-63
2023/08/11 07:42:07;;;;;;;0.75;0.75;;;;;;;;;;5087847;28;20711;-60
2023/08/11 07:44:35;;;;;;;0.63;0.63;;;;;;;;;;5075364;28;20396;-60
2023/08/11 07:47:02;;;;;;;0.63;0.63;;;;;;;;;;5078902;28;20227;-61
2023/08/11 07:49:29;;;;;;;0.90;0.90;;;;;;;;;;5085971;28;20214;-61
2023/08/11 07:51:58;;;;;;;0.73;0.73;;;;;;;;;;5085229;28;20650;-61
2023/08/11 07:54:25;;;;;;;0.70;0.70;;;;;;;;;;5084566;28;20225;-62
2023/08/11 07:56:52;;;;;;;0.82;0.82;;;;;;;;;;5087174;28;20221;-61
2023/08/11 07:59:20;;;;;;;0.85;0.85;;;;;;;;;;5069997;28;20211;-61
2023/08/11 08:01:48;;;;;;;0.82;0.82;;;;;;;;;;5079665;28;20229;-61
2023/08/11 08:04:15;;;;;;;0.80;0.75;;;;;;;;;;5069695;28;20224;-61
2023/08/11 08:06:45;;;;;;;0.77;0.77;;;;;;;;;;5078338;28;20735;-61
2023/08/11 08:09:13;;;;;;;0.88;0.88;;;;;;;;;;5078789;28;20202;-62
2023/08/11 08:11:42;;;;;;;0.70;0.70;;;;;;;;;;5086656;28;20194;-61
2023/08/11 08:14:10;;;;;;;0.80;0.80;;;;;;;;;;5086925;28;20306;-61
2023/08/11 08:16:38;;;;;;;0.70;0.70;;;;;;;;;;5085962;28;20624;-61
2023/08/11 08:19:05;;;;;;;0.82;0.82;;;;;;;;;;5086584;28;20202;-61
2023/08/11 08:21:33;;;;;;;0.52;0.52;;;;;;;;;;5075632;28;20291;-61
2023/08/11 08:24:00;;;;;;;0.95;0.95;;;;;;;;;;5086210;28;20271;-61
2023/08/11 08:26:27;;;;;;;1.10;1.10;;;;;;;;;;5080380;28;20198;-62
2023/08/11 08:28:54;;;;;;;0.70;0.70;;;;;;;;;;5075486;28;20272;-61
2023/08/11 08:31:21;;;;;;;0.60;0.60;;;;;;;;;;5067218;28;20696;-61
2023/08/11 08:33:50;;;;;;;0.65;0.65;;;;;;;;;;5067180;28;20246;-61
2023/08/11 08:36:17;;;;;;;1.00;1.00;;;;;;;;;;5066941;28;20214;-61
2023/08/11 08:38:44;;;;;;;1.00;1.00;;;;;;;;;;5066678;28;20250;-60
2023/08/11 08:41:11;;;;;;;1.27;1.00;;;;;;;;;;5066716;28;20207;-60
2023/08/11 08:43:38;;;;;;;0.80;0.80;;;;;;;;;;5066580;28;20230;-61
2023/08/11 08:46:07;;;;;;;0.80;0.80;;;;;;;;;;5073034;28;20214;-61
2023/08/11 08:48:35;;;;;;;0.70;0.70;;;;;;;;;;5067106;28;20222;-61
2023/08/11 08:51:04;;;;;;;1.00;0.70;;;;;;;;;;5067867;28;20211;-61
2023/08/11 08:53:31;;;;;;;0.60;0.60;;;;;;;;;;5070975;28;20207;-62
2023/08/11 08:55:58;;;;;;;0.73;0.73;;;;;;;;;;5071231;28;20210;-62
2023/08/11 08:58:25;;;;;;;0.73;0.73;;;;;;;;;;5069313;28;20306;-61
2023/08/11 09:00:52;;;;;;;0.88;0.80;;;;;;;;;;5068468;28;20214;-61
2023/08/11 09:03:20;;;;;;;0.73;0.73;;;;;;;;;;5068191;28;20296;-60
2023/08/11 09:05:47;;;;;;;0.90;0.90;;;;;;;;;;5069956;28;20207;-60
2023/08/11 09:08:15;;;;;;;0.80;0.80;;;;;;;;;;5070360;28;20210;-60
2023/08/11 09:10:43;;;;;;;0.85;0.85;;;;;;;;;;5070200;28;20277;-60
2023/08/11 09:13:11;;;;;;;0.75;0.70;;;;;;;;;;5070532;28;20685;-61
2023/08/11 09:15:38;;;;;;;0.70;0.70;;;;;;;;;;5071349;28;20636;-60
2023/08/11 09:18:06;;;;;;;0.65;0.65;;;;;;;;;;5070551;28;20222;-61
2023/08/11 09:20:33;;;;;;;0.70;0.70;;;;;;;;;;5070258;28;20666;-60
2023/08/11 09:23:00;;;;;;;0.70;0.70;;;;;;;;;;5070472;28;20235;-60
2023/08/11 09:25:30;;;;;;;0.65;0.50;;;;;;;;;;5070375;28;20284;-60
2023/08/11 09:27:58;;;;;;;0.90;0.90;;;;;;;;;;5070071;28;20219;-60
2023/08/11 09:30:25;;;;;;;0.80;0.80;;;;;;;;;;5070199;28;20214;-61
2023/08/11 09:32:52;;;;;;;0.60;0.60;;;;;;;;;;5069926;28;20235;-61
2023/08/11 09:35:24;;;;;;;0.60;0.60;;;;;;;;;;5069652;28;20264;-60
2023/08/11 09:37:53;;;;;;;0.80;0.80;;;;;;;;;;5069874;28;20260;-61
2023/08/11 09:40:20;;;;;;;0.65;0.65;;;;;;;;;;5069842;28;20294;-60
2023/08/11 09:42:48;;;;;;;0.70;0.70;;;;;;;;;;5069344;28;20249;-60
2023/08/11 09:45:15;;;;;;;0.70;0.70;;;;;;;;;;5073656;28;20442;-61
2023/08/11 09:47:43;;;;;;;0.70;0.70;;;;;;;;;;5090022;28;20296;-60
2023/08/11 09:50:10;;;;;;;0.90;0.90;;;;;;;;;;5090245;28;20309;-61
2023/08/11 09:52:37;;;;;;;0.80;0.80;;;;;;;;;;5089988;28;20218;-61
2023/08/11 09:55:08;;;;;;;1.10;1.10;;;;;;;;;;5089990;28;20224;-60
2023/08/11 09:57:36;;;;;;;1.08;1.05;;;;;;;;;;5090127;28;20210;-60
2023/08/11 10:00:11;;;;;;;1.20;1.10;;;;;;;;;;5089982;28;20217;-61
2023/08/11 10:02:38;;;;;;;0.95;0.95;;;;;;;;;;5088752;28;20802;-61
2023/08/11 10:05:08;;;;;;;1.00;1.00;;;;;;;;;;5089661;28;20225;-61
2023/08/11 10:07:39;;;;;;;0.90;0.90;;;;;;;;;;5090017;28;20233;-61
2023/08/11 10:10:08;;;;;;;0.82;0.82;;;;;;;;;;5089578;28;20687;-61
2023/08/11 10:12:36;;;;;;;0.70;0.70;;;;;;;;;;5089410;28;20236;-61
2023/08/11 10:15:06;;;;;;;0.80;0.80;;;;;;;;;;5088346;28;20250;-59
2023/08/11 10:17:33;;;;;;;1.33;1.23;;;;;;;;;;5086812;28;20300;-59
2023/08/11 10:20:04;;;;;;;1.10;1.10;;;;;;;;;;5077545;28;20207;-59
2023/08/11 10:22:31;;;;;;;0.88;0.88;;;;;;;;;;5068575;28;20231;-60
2023/08/11 10:24:58;;;;;;;0.70;0.70;;;;;;;;;;5069428;28;20316;-59
2023/08/11 10:27:27;;;;;;;0.80;0.80;;;;;;;;;;5065234;28;20268;-60
2023/08/11 10:29:55;;;;;;;1.00;1.00;;;;;;;;;;5068973;28;20207;-60
2023/08/11 10:32:25;;;;;;;0.63;0.63;;;;;;;;;;5067147;28;20620;-60
2023/08/11 10:34:52;;;;;;;0.85;0.85;;;;;;;;;;5068817;28;20217;-60
2023/08/11 10:37:19;;;;;;;1.15;1.15;;;;;;;;;;5068761;28;20253;-59
2023/08/11 10:39:52;;;;;;;0.88;0.88;;;;;;;;;;5069036;28;20215;-60
2023/08/11 10:42:20;;;;;;;0.90;0.90;;;;;;;;;;5069094;28;20296;-60
2023/08/11 10:44:47;;;;;;;0.80;0.80;;;;;;;;;;5069103;28;20231;-59
2023/08/11 10:47:14;;;;;;;1.10;1.10;;;;;;;;;;5069096;28;20314;-60
2023/08/11 10:49:43;;;;;;;0.90;0.90;;;;;;;;;;5069180;28;20215;-59
2023/08/11 10:52:12;;;;;;;0.70;0.70;;;;;;;;;;5069449;28;20211;-59
2023/08/11 10:54:39;;;;;;;0.90;0.90;;;;;;;;;;5069229;28;20218;-59
2023/08/11 10:57:07;;;;;;;0.90;0.90;;;;;;;;;;5065914;28;20586;-59
2023/08/11 10:59:34;;;;;;;0.70;0.70;;;;;;;;;;5069333;28;20714;-59
2023/08/11 11:02:01;;;;;;;0.63;0.63;;;;;;;;;;5068930;28;20218;-59
2023/08/11 11:04:29;;;;;;;0.85;0.85;;;;;;;;;;5068993;28;20672;-59
2023/08/11 11:06:58;;;;;;;1.10;1.10;;;;;;;;;;5068722;28;20211;-59
2023/08/11 11:09:25;;;;;;;0.77;0.77;;;;;;;;;;5079494;28;20304;-59
2023/08/11 11:11:52;;;;;;;0.80;0.80;;;;;;;;;;5088349;28;20210;-59
2023/08/11 11:14:19;;;;;;;0.88;0.88;;;;;;;;;;5086450;28;20214;-59
2023/08/11 11:16:47;;;;;;;0.63;0.63;;;;;;;;;;5082461;28;20215;-59
2023/08/11 11:19:14;;;;;;;0.75;0.75;;;;;;;;;;5085074;28;20215;-59
2023/08/11 11:21:41;;;;;;;0.70;0.70;;;;;;;;;;5088585;28;20198;-60
2023/08/11 11:24:11;;;;;;;0.70;0.70;;;;;;;;;;5086055;28;20253;-59
2023/08/11 11:26:38;;;;;;;0.63;0.63;;;;;;;;;;5088499;28;20612;-60
2023/08/11 11:29:06;;;;;;;0.70;0.70;;;;;;;;;;5088415;28;20404;-61
2023/08/11 11:31:34;;;;;;;0.70;0.70;;;;;;;;;;5083473;28;20207;-66
2023/08/11 11:34:01;;;;;;;0.80;0.80;;;;;;;;;;5088067;28;20222;-59
2023/08/11 11:36:28;;;;;;;1.10;0.60;;;;;;;;;;5087951;28;20213;-59
2023/08/11 11:38:55;;;;;;;0.60;0.60;;;;;;;;;;5067967;28;20245;-59
2023/08/11 11:41:24;;;;;;;0.73;0.73;;;;;;;;;;5073722;28;20203;-59
2023/08/11 11:43:52;;;;;;;0.82;0.82;;;;;;;;;;5082834;28;20218;-60
2023/08/11 11:46:20;;;;;;;0.60;0.60;;;;;;;;;;5087965;28;20214;-59
2023/08/11 11:48:47;;;;;;;0.75;0.75;;;;;;;;;;5085160;28;20217;-59
2023/08/11 11:51:16;;;;;;;0.60;0.60;;;;;;;;;;5082421;28;20244;-59
2023/08/11 11:53:43;;;;;;;0.60;0.60;;;;;;;;;;5087958;28;20199;-59
2023/08/11 11:56:10;;;;;;;0.60;0.60;;;;;;;;;;5087872;28;20206;-59
2023/08/11 11:58:39;;;;;;;5.30;0.90;;;;;;;;;;5083299;28;20206;-59
2023/08/11 12:01:11;;;;;;;0.63;0.63;;;;;;;;;;5078282;28;20342;-59
2023/08/11 12:03:38;;;;;;;0.60;0.60;;;;;;;;;;5079313;28;20785;-59
2023/08/11 12:06:05;;;;;;;0.60;0.60;;;;;;;;;;5087293;28;20289;-59
2023/08/11 12:08:34;;;;;;;0.70;0.70;;;;;;;;;;5072126;28;20211;-59
2023/08/11 12:11:01;;;;;;;1.27;0.60;;;;;;;;;;5083282;28;20308;-60
2023/08/11 12:13:28;;;;;;;0.60;0.60;;;;;;;;;;5066864;28;20214;-59
2023/08/11 12:15:57;;;;;;;0.45;0.45;;;;;;;;;;5079164;28;20213;-60
2023/08/11 12:18:24;;;;;;;0.68;0.68;;;;;;;;;;5069765;28;20211;-60
2023/08/11 12:20:51;;;;;;;0.55;0.55;;;;;;;;;;5073886;28;20210;-60
2023/08/11 12:23:18;;;;;;;0.50;0.50;;;;;;;;;;5078514;28;20611;-60
2023/08/11 12:25:45;;;;;;;0.50;0.50;;;;;;;;;;5066918;28;20217;-59
2023/08/11 12:28:13;;;;;;;0.60;0.60;;;;;;;;;;5080401;28;20206;-60
2023/08/11 12:30:40;;;;;;;0.40;0.40;;;;;;;;;;5085765;28;20206;-59
2023/08/11 12:33:09;;;;;;;0.43;0.43;;;;;;;;;;5086167;28;20230;-59
2023/08/11 12:35:36;;;;;;;0.52;0.52;;;;;;;;;;5086203;28;20213;-59
2023/08/11 12:38:04;;;;;;;0.55;0.55;;;;;;;;;;5083100;28;20673;-59
2023/08/11 12:40:31;;;;;;;0.63;0.63;;;;;;;;;;5083223;28;20230;-59
2023/08/11 12:42:58;;;;;;;0.50;0.50;;;;;;;;;;5086236;28;20236;-60
2023/08/11 12:45:25;;;;;;;0.65;0.65;;;;;;;;;;5078670;28;20221;-63
2023/08/11 12:47:52;;;;;;;3.92;0.50;;;;;;;;;;5080933;28;20684;-63
2023/08/11 12:50:22;;;;;;;0.55;0.55;;;;;;;;;;5086777;28;20244;-61
2023/08/11 12:52:49;;;;;;;0.70;0.70;;;;;;;;;;5086974;28;20194;-63
2023/08/11 12:55:16;;;;;;;0.55;0.50;;;;;;;;;;5085049;28;20198;-65
2023/08/11 12:57:43;;;;;;;0.60;0.60;;;;;;;;;;5086464;28;20213;-64
2023/08/11 13:00:11;;;;;;;0.60;0.60;;;;;;;;;;5087013;28;20206;-64
2023/08/11 13:02:38;;;;;;;0.70;0.70;;;;;;;;;;5085792;28;20647;-65
2023/08/11 13:05:05;;;;;;;0.40;0.40;;;;;;;;;;5086662;28;20689;-60
2023/08/11 13:07:34;;;;;;;0.70;0.70;;;;;;;;;;5085311;28;20230;-66
2023/08/11 13:10:01;;;;;;;0.70;0.70;;;;;;;;;;5078407;28;20203;-66
2023/08/11 13:12:28;;;;;;;0.50;0.50;;;;;;;;;;5080009;28;20218;-66
2023/08/11 13:14:55;;;;;;;0.60;0.60;;;;;;;;;;5082806;28;20668;-65
2023/08/11 13:17:22;;;;;;;0.50;0.50;;;;;;;;;;5077464;28;20658;-61
2023/08/11 13:19:49;;;;;;;0.63;0.63;;;;;;;;;;5071522;28;20207;-64
2023/08/11 13:22:17;;;;;;;0.50;0.50;;;;;;;;;;5083620;28;20324;-62
2023/08/11 13:24:45;;;;;;;0.60;0.57;;;;;;;;;;5083257;28;20404;-62
2023/08/11 13:27:12;;;;;;;1.70;0.77;;;;;;;;;;5086561;28;20218;-63
2023/08/11 13:29:39;;;;;;;0.40;0.40;;;;;;;;;;5086363;28;20594;-62
2023/08/11 13:32:06;;;;;;;0.70;0.70;;;;;;;;;;5086439;28;20246;-65
2023/08/11 13:34:33;;;;;;;0.70;0.40;;;;;;;;;;5086740;28;20210;-63
2023/08/11 13:37:00;;;;;;;0.60;0.60;;;;;;;;;;5085955;28;20202;-63
2023/08/11 13:39:27;;;;;;;0.60;0.60;;;;;;;;;;5088990;28;20206;-63
2023/08/11 13:41:56;;;;;;;0.80;0.80;;;;;;;;;;5087966;28;20245;-69
2023/08/11 13:44:23;;;;;;;0.40;0.40;;;;;;;;;;5089150;28;20287;-64
2023/08/11 13:46:50;;;;;;;0.60;0.60;;;;;;;;;;5088269;28;20591;-63
2023/08/11 13:49:17;;;;;;;0.63;0.63;;;;;;;;;;5080186;28;20205;-65
2023/08/11 13:51:45;;;;;;;0.40;0.40;;;;;;;;;;5090678;28;20210;-63
2023/08/11 13:54:12;;;;;;;0.60;0.60;;;;;;;;;;5087935;28;20194;-64
2023/08/11 13:56:39;;;;;;;0.60;0.60;;;;;;;;;;5090518;28;20902;-64
2023/08/11 13:59:07;;;;;;;0.52;0.52;;;;;;;;;;5090518;28;20214;-64
2023/08/11 14:01:35;;;;;;;0.52;0.52;;;;;;;;;;5069726;28;20211;-64
2023/08/11 14:04:02;;;;;;;0.88;0.88;;;;;;;;;;5082059;28;20226;-64
2023/08/11 14:06:29;;;;;;;0.60;0.60;;;;;;;;;;5073905;28;20213;-64
2023/08/11 14:08:58;;;;;;;0.50;0.50;;;;;;;;;;5087389;28;20206;-66
2023/08/11 14:11:25;;;;;;;0.80;0.80;;;;;;;;;;5068234;28;20303;-61
2023/08/11 14:13:52;;;;;;;0.68;0.68;;;;;;;;;;5069425;28;20218;-61
2023/08/11 14:16:21;;;;;;;0.50;0.50;;;;;;;;;;5089448;28;20261;-61
2023/08/11 14:18:48;;;;;;;0.45;0.45;;;;;;;;;;5071199;28;20581;-61
2023/08/11 14:21:17;;;;;;;0.50;0.50;;;;;;;;;;5072469;28;20808;-61
2023/08/11 14:23:44;;;;;;;0.40;0.40;;;;;;;;;;5089845;28;20321;-61
2023/08/11 14:26:11;;;;;;;0.70;0.70;;;;;;;;;;5089936;28;20213;-61
2023/08/11 14:28:39;;;;;;;0.60;0.60;;;;;;;;;;5088243;28;21768;-61
2023/08/11 14:31:06;;;;;;;0.60;0.60;;;;;;;;;;5082310;28;20207;-61
2023/08/11 14:33:34;;;;;;;0.85;0.70;;;;;;;;;;5069645;28;20234;-61
2023/08/11 14:36:02;;;;;;;0.60;0.60;;;;;;;;;;5084921;28;20254;-61
2023/08/11 14:38:29;;;;;;;0.57;0.57;;;;;;;;;;5081408;28;20210;-61
2023/08/11 14:40:56;;;;;;;0.52;0.52;;;;;;;;;;5086089;28;20215;-62
2023/08/11 14:43:23;;;;;;;0.68;0.68;;;;;;;;;;5089247;28;20226;-61
2023/08/11 14:45:50;;;;;;;0.68;0.68;;;;;;;;;;5088785;28;20312;-61